Time;durP1;ratioP1;P1;durP2;ratioP2;P2;SDS_P1;SDS_P2;PMS_P1;PMS_P2;Temp;Humidity;BMP_temperature;BMP_pressure;BME280_temperature;BME280_humidity;BME280_pressure;Samples;Min_cycle;Max_cycle;Signal;HPM_P1;HPM_P2
2021/03/22 00:01:15;;;;;;;17.50;6.17;;;;;;;5.82;64.00;101593.81;5080415;28;20553;-67
2021/03/22 00:03:40;;;;;;;16.77;6.13;;;;;;;5.87;63.87;101592.31;5080268;28;20302;-71
2021/03/22 00:06:06;;;;;;;23.57;7.87;;;;;;;5.80;64.24;101598.06;5080523;28;20545;-68
2021/03/22 00:08:32;;;;;;;21.80;7.30;;;;;;;5.86;63.24;101603.50;5080436;28;20259;-70
2021/03/22 00:10:57;;;;;;;17.27;6.40;;;;;;;5.70;64.18;101599.38;5080320;28;20474;-70
2021/03/22 00:13:25;;;;;;;18.20;6.33;;;;;;;5.82;63.17;101596.41;5080841;28;20403;-69
2021/03/22 00:15:53;;;;;;;18.37;7.47;;;;;;;5.74;64.07;101598.69;5080090;28;20595;-68
2021/03/22 00:18:21;;;;;;;27.10;8.63;;;;;;;5.74;63.71;101596.97;5080135;28;20502;-68
2021/03/22 00:20:47;;;;;;;27.17;7.33;;;;;;;5.59;64.44;101600.59;5080449;28;20415;-69
2021/03/22 00:23:13;;;;;;;34.70;7.73;;;;;;;5.61;64.18;101604.13;5079886;28;20423;-69
2021/03/22 00:25:38;;;;;;;21.40;6.93;;;;;;;5.32;64.91;101603.75;5079818;28;20481;-69
2021/03/22 00:28:04;;;;;;;21.33;7.10;;;;;;;5.61;64.58;101599.84;5080331;28;20233;-68
2021/03/22 00:30:33;;;;;;;21.33;6.73;;;;;;;5.49;64.82;101612.22;5079944;28;20187;-69
2021/03/22 00:32:58;;;;;;;22.00;6.70;;;;;;;5.60;64.64;101611.00;5079842;28;20410;-68
2021/03/22 00:35:23;;;;;;;25.77;7.00;;;;;;;5.51;64.09;101610.63;5080337;28;20426;-70
2021/03/22 00:37:50;;;;;;;23.27;6.63;;;;;;;5.53;64.71;101611.56;5063202;28;20165;-70
2021/03/22 00:40:16;;;;;;;16.30;8.03;;;;;;;5.85;63.83;101610.38;5080204;28;20450;-69
2021/03/22 00:42:42;;;;;;;17.43;5.80;;;;;;;5.35;66.13;101606.47;5080166;28;20469;-69
2021/03/22 00:45:10;;;;;;;23.70;7.43;;;;;;;5.52;64.64;101610.69;5079539;28;20752;-69
2021/03/22 00:47:35;;;;;;;17.13;7.30;;;;;;;5.36;64.57;101603.06;5079410;28;20191;-67
2021/03/22 00:50:02;;;;;;;22.77;7.17;;;;;;;5.55;64.27;101604.75;5080007;28;20411;-67
2021/03/22 00:52:28;;;;;;;25.77;6.50;;;;;;;5.74;64.11;101599.56;5079349;28;20435;-68
2021/03/22 00:54:54;;;;;;;19.17;6.87;;;;;;;5.50;64.67;101606.25;5079481;28;20423;-68
2021/03/22 00:57:19;;;;;;;16.63;6.33;;;;;;;5.80;63.75;101603.22;5079692;28;20741;-68
2021/03/22 00:59:44;;;;;;;21.43;6.80;;;;;;;5.22;65.76;101615.34;5079597;28;20430;-67
2021/03/22 01:02:09;;;;;;;20.63;6.90;;;;;;;5.45;64.78;101606.03;5079200;28;20176;-67
2021/03/22 01:04:35;;;;;;;22.73;8.20;;;;;;;5.52;64.77;101605.50;5061871;28;20295;-67
2021/03/22 01:07:00;;;;;;;20.07;6.77;;;;;;;5.36;65.43;101603.06;5079054;28;20238;-73
2021/03/22 01:09:26;;;;;;;8.47;5.67;;;;;;;12.53;59.08;101572.50;5078326;28;20172;-63
2021/03/22 01:11:51;;;;;;;17.40;5.90;;;;;;;13.38;51.14;101571.03;5079290;28;20410;-63
2021/03/22 01:14:17;;;;;;;16.87;5.90;;;;;;;10.40;47.88;101584.00;5079035;28;20165;-71
2021/03/22 01:16:42;;;;;;;16.77;6.17;;;;;;;8.37;53.97;101582.63;5079002;28;20169;-71
2021/03/22 01:19:12;;;;;;;22.33;6.87;;;;;;;7.08;57.64;101604.09;5079334;28;20538;-71
2021/03/22 01:21:38;;;;;;;18.13;5.73;;;;;;;6.53;59.61;101596.78;5061527;28;20200;-72
2021/03/22 01:24:05;;;;;;;15.47;6.47;;;;;;;6.30;61.91;101601.03;5078589;28;20536;-71
2021/03/22 01:26:32;;;;;;;24.90;6.00;;;;;;;5.91;62.24;101609.75;5061760;28;20426;-71
2021/03/22 01:28:58;;;;;;;20.47;6.70;;;;;;;6.09;61.87;101593.25;5078759;28;20419;-70
2021/03/22 01:31:24;;;;;;;19.97;6.17;;;;;;;5.60;62.95;101586.84;5078518;28;20426;-71
2021/03/22 01:33:51;;;;;;;22.07;5.90;;;;;;;5.50;63.88;101595.91;5079150;28;20411;-71
2021/03/22 01:36:21;;;;;;;17.73;6.73;;;;;;;5.45;64.89;101587.06;5061146;28;20415;-71
2021/03/22 01:38:46;;;;;;;18.67;6.30;;;;;;;5.37;64.39;101587.59;5061360;28;20681;-71
2021/03/22 01:41:40;;;;;;;22.30;6.70;;;;;;;5.58;64.92;101589.38;5061606;28;20491;-71
2021/03/22 01:44:14;;;;;;;23.10;8.17;;;;;;;5.32;65.01;101585.66;5060994;28;20184;-71
2021/03/22 01:46:46;;;;;;;24.27;7.53;;;;;;;5.23;65.65;101589.56;5061218;28;20477;-71
2021/03/22 01:49:11;;;;;;;23.23;6.63;;;;;;;5.51;64.87;101589.94;5061089;28;20430;-71
2021/03/22 01:51:37;;;;;;;20.43;7.47;;;;;;;5.49;64.23;101581.19;5078296;28;20419;-72
2021/03/22 01:54:04;;;;;;;23.63;7.23;;;;;;;5.53;64.19;101580.50;5061505;28;20539;-71
2021/03/22 01:56:40;;;;;;;20.33;6.83;;;;;;;5.19;65.40;101591.94;5060834;28;20173;-71
2021/03/22 01:59:06;;;;;;;18.50;6.30;;;;;;;5.37;64.97;101589.28;5078371;28;20541;-71
2021/03/22 02:01:31;;;;;;;17.23;7.10;;;;;;;5.12;65.95;101597.66;5078280;28;20431;-71
2021/03/22 02:03:57;;;;;;;23.03;7.43;;;;;;;5.06;66.41;101600.84;5060694;28;20590;-71
2021/03/22 02:06:22;;;;;;;24.13;7.37;;;;;;;4.88;67.17;101604.34;5061345;28;20407;-71
2021/03/22 02:08:48;;;;;;;22.80;7.73;;;;;;;5.31;65.44;101607.13;5060849;28;20172;-72
2021/03/22 02:11:29;;;;;;;22.20;6.87;;;;;;;5.46;64.99;101606.94;5060602;28;20169;-71
2021/03/22 02:13:57;;;;;;;20.13;6.50;;;;;;;5.30;66.02;101607.94;5078061;28;20177;-71
2021/03/22 02:16:33;;;;;;;18.67;6.20;;;;;;;5.43;65.48;101601.63;5078182;28;20419;-70
2021/03/22 02:19:23;;;;;;;23.77;6.30;;;;;;;5.31;66.07;101600.25;5060663;28;20423;-71
2021/03/22 02:22:09;;;;;;;18.87;6.73;;;;;;;5.36;65.96;101603.06;5060576;28;20457;-71
2021/03/22 02:25:02;;;;;;;23.57;7.00;;;;;;;5.60;65.42;101594.59;5077684;28;20466;-70
2021/03/22 02:28:19;;;;;;;29.13;9.60;;;;;;;5.34;65.40;101595.22;5078059;28;20413;-70
2021/03/22 02:30:50;;;;;;;19.43;6.93;;;;;;;5.29;66.36;101593.25;5044465;28;20410;-71
2021/03/22 02:33:57;;;;;;;28.10;7.10;;;;;;;5.34;66.40;101602.97;5078444;28;20802;-70
2021/03/22 02:36:43;;;;;;;21.97;6.40;;;;;;;5.30;66.08;101601.06;5050634;28;20564;-70
2021/03/22 02:39:09;;;;;;;22.80;7.10;;;;;;;5.10;66.90;101594.09;5078081;28;20717;-71
2021/03/22 02:41:47;;;;;;;28.53;7.23;;;;;;;5.14;66.99;101599.50;5077748;28;20518;-71
2021/03/22 02:44:25;;;;;;;21.03;6.40;;;;;;;5.30;66.52;101595.00;5060516;28;20204;-70
2021/03/22 02:46:59;;;;;;;21.27;7.87;;;;;;;5.03;66.90;101600.69;5078148;28;20453;-71
2021/03/22 02:49:28;;;;;;;33.70;8.70;;;;;;;5.27;66.36;101602.66;5078386;28;20422;-71
2021/03/22 02:52:16;;;;;;;22.20;7.53;;;;;;;5.02;67.98;101594.66;5077594;28;20438;-71
2021/03/22 02:54:50;;;;;;;24.20;8.63;;;;;;;5.00;67.51;101595.41;5077781;28;20411;-71
2021/03/22 02:57:20;;;;;;;25.43;7.67;;;;;;;4.78;68.12;101596.09;5077708;28;20827;-71
2021/03/22 02:59:49;;;;;;;20.57;8.33;;;;;;;5.06;67.22;101601.72;5060306;28;20419;-71
2021/03/22 03:02:15;;;;;;;27.40;8.23;;;;;;;4.93;68.16;101603.69;5060105;28;20751;-71
2021/03/22 03:04:41;;;;;;;27.20;8.43;;;;;;;4.65;67.85;101608.41;5060178;28;20466;-71
2021/03/22 03:07:10;;;;;;;18.13;6.90;;;;;;;4.39;69.11;101614.91;5060446;28;20418;-71
2021/03/22 03:09:38;;;;;;;28.83;8.63;;;;;;;4.98;67.69;101613.41;5077507;28;20263;-71
2021/03/22 03:12:18;;;;;;;22.27;6.97;;;;;;;4.98;68.25;101610.84;5060153;28;20449;-71
2021/03/22 03:14:47;;;;;;;22.63;8.43;;;;;;;4.79;67.97;101615.94;5077583;28;20482;-71
2021/03/22 03:17:13;;;;;;;25.40;9.10;;;;;;;4.75;69.31;101632.09;5077486;28;20504;-71
2021/03/22 03:19:38;;;;;;;17.57;7.47;;;;;;;4.84;68.37;101623.13;5077589;28;20407;-70
2021/03/22 03:22:04;;;;;;;26.63;8.43;;;;;;;4.56;69.14;101628.66;5077353;28;20418;-70
2021/03/22 03:24:30;;;;;;;21.43;8.07;;;;;;;4.85;68.66;101629.16;5059947;28;20224;-71
2021/03/22 03:26:55;;;;;;;22.40;7.87;;;;;;;5.13;67.41;101625.25;5077494;28;20419;-69
2021/03/22 03:29:20;;;;;;;25.03;7.97;;;;;;;4.49;69.60;101629.16;5060299;28;20205;-71
2021/03/22 03:31:46;;;;;;;17.27;7.00;;;;;;;4.39;69.76;101632.97;5077979;28;20222;-71
2021/03/22 03:34:11;;;;;;;21.33;7.90;;;;;;;4.81;68.85;101632.41;5081024;28;20165;-71
2021/03/22 03:36:36;;;;;;;18.17;7.20;;;;;;;4.85;68.97;101627.44;5063969;28;20222;-70
2021/03/22 03:39:05;;;;;;;22.50;7.57;;;;;;;4.29;70.80;101635.91;5080942;28;20303;-70
2021/03/22 03:41:30;;;;;;;24.13;7.33;;;;;;;4.21;70.28;101638.13;5080682;28;20172;-70
2021/03/22 03:43:55;;;;;;;29.00;7.63;;;;;;;4.46;70.43;101634.16;5081298;28;20505;-71
2021/03/22 03:46:21;;;;;;;19.83;6.53;;;;;;;4.63;69.49;101637.59;5080899;28;20242;-72
2021/03/22 03:48:46;;;;;;;20.40;7.10;;;;;;;4.43;70.99;101634.91;5080801;28;20173;-72
2021/03/22 03:51:11;;;;;;;27.87;8.10;;;;;;;4.60;69.87;101643.50;5081156;28;20204;-72
2021/03/22 03:53:37;;;;;;;18.73;6.97;;;;;;;4.71;69.31;101650.03;5080556;28;20177;-72
2021/03/22 03:56:03;;;;;;;17.50;6.50;;;;;;;4.48;70.18;101646.34;5080567;28;20208;-71
2021/03/22 03:58:28;;;;;;;21.70;6.77;;;;;;;4.81;68.93;101643.63;5081083;28;20598;-71
2021/03/22 04:00:54;;;;;;;19.90;7.30;;;;;;;4.10;71.89;101642.75;5080369;28;20513;-71
2021/03/22 04:03:31;;;;;;;24.17;7.60;;;;;;;4.45;71.23;101637.56;5062713;28;20259;-70
2021/03/22 04:05:56;;;;;;;19.27;6.97;;;;;;;4.82;69.78;101647.97;5080108;28;20212;-71
2021/03/22 04:08:22;;;;;;;18.70;6.70;;;;;;;4.58;69.90;101642.50;5080325;28;20792;-70
2021/03/22 04:10:48;;;;;;;23.77;6.77;;;;;;;4.65;69.86;101657.47;5080967;28;20430;-71
2021/03/22 04:13:14;;;;;;;18.70;6.80;;;;;;;4.49;70.34;101647.22;5080362;28;20260;-71
2021/03/22 04:15:39;;;;;;;31.20;7.80;;;;;;;4.46;71.01;101647.94;5080185;28;20458;-71
2021/03/22 04:18:05;;;;;;;28.47;8.20;;;;;;;4.72;70.05;101658.66;5080914;28;20165;-71
2021/03/22 04:20:30;;;;;;;21.47;7.00;;;;;;;4.38;71.60;101659.59;5080021;28;20517;-71
2021/03/22 04:22:56;;;;;;;34.40;8.10;;;;;;;4.72;70.13;101661.25;5079951;28;20173;-70
2021/03/22 04:25:21;;;;;;;24.63;7.10;;;;;;;4.57;70.94;101663.97;5079898;28;20228;-71
2021/03/22 04:27:47;;;;;;;31.20;7.77;;;;;;;4.61;71.17;101660.72;5080066;28;20724;-71
2021/03/22 04:30:16;;;;;;;28.27;7.30;;;;;;;4.51;71.84;101659.41;5080425;28;20260;-71
2021/03/22 04:32:41;;;;;;;18.77;7.00;;;;;;;4.37;70.80;101665.56;5080370;28;20259;-71
2021/03/22 04:35:07;;;;;;;18.00;8.63;;;;;;;4.67;70.99;101666.22;5079814;28;20754;-72
2021/03/22 04:37:32;;;;;;;26.50;7.57;;;;;;;4.66;71.19;101672.19;5080132;28;20214;-71
2021/03/22 04:39:58;;;;;;;21.07;7.90;;;;;;;4.92;70.11;101675.13;5079711;28;20511;-71
2021/03/22 04:42:23;;;;;;;23.50;7.67;;;;;;;4.72;70.60;101675.06;5079692;28;20169;-71
2021/03/22 04:44:49;;;;;;;18.10;6.97;;;;;;;4.87;71.06;101674.03;5079830;28;20189;-70
2021/03/22 04:47:14;;;;;;;24.07;7.87;;;;;;;5.24;69.55;101680.94;5062230;28;20269;-71
2021/03/22 04:49:39;;;;;;;22.20;8.70;;;;;;;4.67;71.82;101675.66;5079416;28;20187;-71
2021/03/22 04:52:06;;;;;;;24.63;8.70;;;;;;;4.88;69.98;101680.97;5079638;28;20180;-70
2021/03/22 04:54:31;;;;;;;32.90;9.23;;;;;;;4.99;70.73;101679.81;5079397;28;20173;-71
2021/03/22 04:57:12;;;;;;;32.00;8.33;;;;;;;4.62;71.76;101677.13;5079374;28;20721;-71
2021/03/22 04:59:38;;;;;;;26.97;8.23;;;;;;;5.09;70.14;101681.13;5079261;28;20192;-71
2021/03/22 05:02:04;;;;;;;24.57;8.20;;;;;;;5.45;68.93;101682.75;5079056;28;20415;-71
2021/03/22 05:04:30;;;;;;;20.97;7.90;;;;;;;5.42;69.43;101680.03;5079426;28;20716;-71
2021/03/22 05:06:55;;;;;;;19.50;7.63;;;;;;;5.29;69.05;101681.13;5079044;28;20426;-71
2021/03/22 05:09:20;;;;;;;22.53;8.33;;;;;;;5.08;70.33;101687.09;5079045;28;20173;-70
2021/03/22 05:11:45;;;;;;;29.73;8.47;;;;;;;5.47;69.23;101688.88;5079441;28;20527;-72
2021/03/22 05:14:11;;;;;;;31.23;9.03;;;;;;;5.42;68.92;101685.19;5078972;28;20177;-71
2021/03/22 05:16:36;;;;;;;28.93;9.77;;;;;;;5.38;68.96;101685.03;5079160;28;20181;-70
2021/03/22 05:19:01;;;;;;;31.40;8.87;;;;;;;5.29;69.56;101684.63;5079584;28;20175;-71
2021/03/22 05:21:27;;;;;;;21.27;8.50;;;;;;;5.40;69.44;101693.75;5078638;28;20551;-71
2021/03/22 05:23:52;;;;;;;29.37;10.83;;;;;;;5.76;67.87;101691.88;5078832;28;20185;-71
2021/03/22 05:26:17;;;;;;;32.10;8.87;;;;;;;5.34;69.17;101697.75;5079153;28;20220;-71
2021/03/22 05:28:44;;;;;;;24.80;9.87;;;;;;;5.36;69.05;101697.03;5078891;28;20224;-71
2021/03/22 05:31:10;;;;;;;24.30;8.83;;;;;;;5.41;68.93;101697.22;5078542;28;20176;-72
2021/03/22 05:33:35;;;;;;;23.20;9.20;;;;;;;5.34;68.88;101700.34;5079423;28;20412;-71
2021/03/22 05:36:01;;;;;;;23.57;8.97;;;;;;;5.37;68.72;101692.72;5078539;28;20251;-71
2021/03/22 05:38:27;;;;;;;22.80;8.73;;;;;;;5.86;67.67;101707.03;5078551;28;20176;-71
2021/03/22 05:40:56;;;;;;;18.60;7.90;;;;;;;5.11;68.43;101710.47;5078939;28;20199;-71
2021/03/22 05:43:30;;;;;;;32.10;9.87;;;;;;;5.57;68.13;101714.34;5078434;28;20427;-70
2021/03/22 05:46:33;;;;;;;28.03;9.60;;;;;;;5.46;67.78;101715.56;5078293;28;20465;-71
2021/03/22 05:49:01;;;;;;;16.10;7.80;;;;;;;5.73;67.48;101713.34;5061315;28;20495;-71
2021/03/22 05:52:15;;;;;;;32.20;10.70;;;;;;;5.55;67.68;101703.06;5078465;28;20411;-70
2021/03/22 05:55:28;;;;;;;16.97;8.27;;;;;;;5.36;68.00;101709.06;5024127;28;20504;-71
2021/03/22 05:58:11;;;;;;;17.40;8.43;;;;;;;5.65;67.64;101709.53;4998006;28;20734;-71
2021/03/22 06:00:36;;;;;;;16.07;8.57;;;;;;;5.38;68.34;101726.41;4997442;28;20430;-72
2021/03/22 06:03:09;;;;;;;24.53;9.27;;;;;;;5.67;67.67;101721.72;5049170;28;20411;-71
2021/03/22 06:05:45;;;;;;;28.77;10.23;;;;;;;5.61;67.49;101728.31;5077916;28;20299;-72
2021/03/22 06:08:20;;;;;;;23.07;9.07;;;;;;;5.52;67.50;101726.16;5078161;28;20514;-71
2021/03/22 06:10:51;;;;;;;17.53;7.97;;;;;;;5.88;65.97;101728.66;5078114;28;20415;-72
2021/03/22 06:13:18;;;;;;;17.57;8.70;;;;;;;5.82;66.54;101729.28;5077837;28;20517;-73
2021/03/22 06:15:56;;;;;;;17.47;8.83;;;;;;;5.66;67.15;101732.88;5060600;28;20415;-71
2021/03/22 06:18:34;;;;;;;18.03;8.70;;;;;;;5.82;66.91;101730.97;5060570;28;20509;-71
2021/03/22 06:21:10;;;;;;;16.30;7.80;;;;;;;6.11;65.59;101731.44;5060504;28;20458;-71
2021/03/22 06:23:38;;;;;;;23.20;9.80;;;;;;;6.44;64.74;101729.41;5078170;28;20414;-71
2021/03/22 06:26:05;;;;;;;16.03;8.40;;;;;;;6.56;64.00;101734.19;5077768;28;20466;-71
2021/03/22 06:28:32;;;;;;;26.80;10.30;;;;;;;6.52;64.61;101737.47;5061786;28;20423;-70
2021/03/22 06:31:06;;;;;;;21.17;8.40;;;;;;;6.31;64.54;101732.28;5044324;28;20746;-70
2021/03/22 06:33:35;;;;;;;19.57;9.10;;;;;;;6.39;64.24;101739.56;5077969;28;20869;-71
2021/03/22 06:36:01;;;;;;;17.20;8.27;;;;;;;6.58;63.64;101730.00;5060238;28;20886;-71
2021/03/22 06:38:27;;;;;;;14.03;8.10;;;;;;;6.50;64.13;101740.03;5060244;28;20411;-70
2021/03/22 06:40:52;;;;;;;16.70;9.13;;;;;;;6.44;64.35;101738.88;5077733;28;20885;-71
2021/03/22 06:43:22;;;;;;;22.50;8.07;;;;;;;6.16;65.31;101746.34;5078135;28;20172;-71
2021/03/22 06:45:50;;;;;;;25.73;8.40;;;;;;;6.39;63.67;101749.03;5077706;28;20201;-71
2021/03/22 06:48:21;;;;;;;27.03;9.13;;;;;;;5.86;65.76;101753.59;5077846;28;20415;-70
2021/03/22 06:50:49;;;;;;;23.50;9.67;;;;;;;6.26;64.77;101757.09;5043557;28;20446;-71
2021/03/22 06:53:43;;;;;;;21.47;10.57;;;;;;;6.23;64.91;101758.72;5059969;28;20426;-71
2021/03/22 06:56:23;;;;;;;19.70;9.90;;;;;;;6.31;64.63;101747.84;5077389;28;20411;-73
2021/03/22 06:59:09;;;;;;;17.90;8.67;;;;;;;5.73;66.20;101760.78;5077342;28;20411;-72
2021/03/22 07:01:34;;;;;;;26.57;9.17;;;;;;;6.23;65.08;101761.31;5077203;28;20675;-74
2021/03/22 07:04:20;;;;;;;23.03;9.40;;;;;;;7.13;62.71;101759.88;5077553;28;20411;-74
2021/03/22 07:07:07;;;;;;;14.57;8.50;;;;;;;7.32;61.05;101768.38;5078266;28;20208;-72
2021/03/22 07:09:36;;;;;;;20.47;9.53;;;;;;;7.13;61.19;101764.16;5081329;28;20407;-73
2021/03/22 07:12:03;;;;;;;16.07;8.63;;;;;;;7.43;60.25;101761.91;5081264;28;20419;-74
2021/03/22 07:14:30;;;;;;;17.03;8.57;;;;;;;6.58;62.47;101767.13;5081141;28;20422;-73
2021/03/22 07:17:07;;;;;;;15.93;8.63;;;;;;;6.94;61.62;101768.63;5081657;28;20675;-74
2021/03/22 07:19:33;;;;;;;15.00;9.00;;;;;;;6.30;64.52;101774.53;5081152;28;20418;-75
2021/03/22 07:22:02;;;;;;;27.97;11.80;;;;;;;7.25;61.59;101772.44;5080914;28;20423;-74
2021/03/22 07:24:46;;;;;;;23.47;8.97;;;;;;;6.74;62.09;101765.22;5080857;28;20474;-75
2021/03/22 07:27:19;;;;;;;14.27;8.63;;;;;;;6.47;63.40;101767.47;5080985;28;20537;-76
2021/03/22 07:30:29;;;;;;;16.60;8.70;;;;;;;7.14;60.19;101769.41;5080971;28;20484;-75
2021/03/22 07:33:02;;;;;;;16.43;8.60;;;;;;;6.87;60.98;101774.34;5081044;28;20439;-74
2021/03/22 07:36:04;;;;;;;15.60;9.00;;;;;;;7.19;60.56;101764.44;5046965;28;20430;-78
2021/03/22 07:38:45;;;;;;;18.23;8.80;;;;;;;7.00;61.02;101763.69;5080908;28;20433;-74
2021/03/22 07:41:27;;;;;;;14.87;8.37;;;;;;;9.29;54.39;101753.69;5080606;28;20785;-74
2021/03/22 07:44:14;;;;;;;18.60;8.70;;;;;;;10.09;52.53;101753.47;5063278;28;20423;-74
2021/03/22 07:46:53;;;;;;;15.20;7.93;;;;;;;11.52;46.85;101750.06;5080489;28;20839;-74
2021/03/22 07:49:41;;;;;;;24.37;7.97;;;;;;;12.55;44.57;101751.25;5080819;28;20765;-73
2021/03/22 07:52:28;;;;;;;16.10;8.50;;;;;;;11.77;45.84;101761.91;5080300;28;20414;-74
2021/03/22 07:55:15;;;;;;;15.60;8.60;;;;;;;10.87;48.07;101766.81;5080366;28;20676;-75
2021/03/22 07:57:57;;;;;;;13.17;7.83;;;;;;;10.95;48.50;101769.63;5080163;28;20412;-75
2021/03/22 08:00:32;;;;;;;17.83;8.23;;;;;;;10.51;49.00;101765.00;5063031;28;20433;-79
2021/03/22 08:03:19;;;;;;;17.97;8.30;;;;;;;10.66;50.17;101774.97;5080288;28;20415;-72
2021/03/22 08:05:57;;;;;;;12.60;7.40;;;;;;;10.25;49.59;101772.13;5063051;28;20467;-71
2021/03/22 08:08:44;;;;;;;15.20;7.30;;;;;;;10.42;49.43;101777.84;5080472;28;20446;-71
2021/03/22 08:11:23;;;;;;;12.87;7.63;;;;;;;10.73;48.53;101783.81;5062956;28;20758;-71
2021/03/22 08:13:53;;;;;;;12.73;7.43;;;;;;;10.11;49.70;101790.84;5062960;28;20692;-71
2021/03/22 08:16:21;;;;;;;13.80;8.03;;;;;;;11.53;46.86;101780.56;5062863;28;20517;-71
2021/03/22 08:18:56;;;;;;;12.60;6.70;;;;;;;10.43;50.19;101777.88;5077227;28;20510;-72
2021/03/22 08:21:37;;;;;;;16.20;8.03;;;;;;;13.27;43.19;101769.88;5062484;28;20441;-71
2021/03/22 08:24:36;;;;;;;13.20;6.67;;;;;;;12.91;42.74;101764.94;5062972;28;20514;-71
2021/03/22 08:27:14;;;;;;;14.37;6.70;;;;;;;12.23;44.64;101775.06;5063553;28;20445;-71
2021/03/22 08:29:48;;;;;;;11.00;6.70;;;;;;;12.75;43.55;101766.41;5062625;28;20422;-70
2021/03/22 08:32:34;;;;;;;10.43;7.47;;;;;;;12.94;42.61;101765.84;5079942;28;20446;-71
2021/03/22 08:35:02;;;;;;;12.13;6.70;;;;;;;13.04;41.67;101766.88;5062303;28;20394;-71
2021/03/22 08:37:45;;;;;;;13.00;7.30;;;;;;;11.72;44.39;101779.22;5079780;28;20423;-71
2021/03/22 08:40:18;;;;;;;13.30;8.10;;;;;;;12.21;44.07;101778.50;5062126;28;20415;-72
2021/03/22 08:42:57;;;;;;;10.97;7.23;;;;;;;13.74;41.20;101771.41;5079417;28;20390;-72
2021/03/22 08:45:35;;;;;;;9.10;6.27;;;;;;;12.45;42.51;101780.72;5062183;28;20457;-69
2021/03/22 08:48:14;;;;;;;9.53;6.23;;;;;;;12.56;43.08;101783.53;5045548;28;20419;-73
2021/03/22 08:50:40;;;;;;;17.53;7.80;;;;;;;11.45;45.13;101795.16;5079456;28;20737;-74
2021/03/22 08:53:08;;;;;;;10.03;6.10;;;;;;;11.64;45.83;101799.06;5079043;28;20445;-75
2021/03/22 08:55:46;;;;;;;13.10;6.37;;;;;;;11.84;45.87;101788.16;5079048;28;20431;-74
2021/03/22 08:58:14;;;;;;;11.47;6.23;;;;;;;13.26;41.35;101781.19;5062668;28;20413;-75
2021/03/22 09:00:47;;;;;;;10.13;5.97;;;;;;;13.74;39.87;101774.03;5078158;28;20509;-74
2021/03/22 09:03:21;;;;;;;10.73;6.10;;;;;;;15.56;36.50;101772.28;5059563;28;20413;-75
2021/03/22 09:06:08;;;;;;;9.40;5.70;;;;;;;14.88;37.53;101774.41;5078871;28;20520;-74
2021/03/22 09:08:40;;;;;;;12.10;6.70;;;;;;;16.36;34.31;101765.56;5061459;28;20438;-74
2021/03/22 09:11:28;;;;;;;12.33;6.50;;;;;;;15.91;35.38;101765.44;5078799;28;20419;-73
2021/03/22 09:14:20;;;;;;;7.90;5.20;;;;;;;15.89;38.15;101765.44;5078605;28;20812;-65
2021/03/22 09:16:50;;;;;;;10.33;5.97;;;;;;;16.57;34.00;101762.97;5078858;28;20382;-70
2021/03/22 09:19:16;;;;;;;11.67;5.97;;;;;;;17.31;32.40;101756.84;5078299;28;20867;-70
2021/03/22 09:21:43;;;;;;;12.47;5.70;;;;;;;16.77;33.53;101759.50;5078744;28;20407;-69
2021/03/22 09:24:36;;;;;;;8.17;6.03;;;;;;;16.20;33.76;101762.06;5078212;28;20700;-71
2021/03/22 09:27:19;;;;;;;8.43;5.77;;;;;;;15.99;34.71;101761.09;5078478;28;20399;-70
2021/03/22 09:29:44;;;;;;;8.13;6.30;;;;;;;16.42;35.25;101750.69;5077852;28;20415;-70
2021/03/22 09:32:28;;;;;;;8.40;5.23;;;;;;;15.85;35.89;101758.41;5078362;28;20415;-70
2021/03/22 09:34:57;;;;;;;8.47;6.20;;;;;;;15.99;34.82;101768.97;5078413;28;20177;-69
2021/03/22 09:37:43;;;;;;;14.27;6.33;;;;;;;15.99;34.66;101776.88;5078085;28;20419;-70
2021/03/22 09:40:11;;;;;;;9.23;6.43;;;;;;;15.56;36.26;101774.00;5078205;28;20415;-70
2021/03/22 09:42:36;;;;;;;8.63;5.77;;;;;;;16.42;34.09;101779.63;5078336;28;20401;-68
2021/03/22 09:45:12;;;;;;;8.63;5.50;;;;;;;14.42;37.68;101781.81;5061013;28;20520;-72
2021/03/22 09:47:40;;;;;;;9.90;5.57;;;;;;;14.96;37.43;101782.34;5078051;28;20220;-70
2021/03/22 09:50:18;;;;;;;7.57;5.33;;;;;;;16.54;33.73;101770.00;5078090;28;20419;-71
2021/03/22 09:52:53;;;;;;;8.30;5.70;;;;;;;15.62;34.80;101780.19;5060230;28;20381;-69
2021/03/22 09:55:27;;;;;;;8.90;5.97;;;;;;;14.37;37.62;101781.78;5077901;28;20825;-71
2021/03/22 09:57:54;;;;;;;10.27;5.83;;;;;;;15.98;35.41;101776.00;5077879;28;20456;-71
2021/03/22 10:00:27;;;;;;;12.27;6.43;;;;;;;16.87;33.12;101760.38;5061097;28;20406;-71
2021/03/22 10:02:58;;;;;;;10.23;7.23;;;;;;;17.71;31.20;101762.03;5077814;28;20393;-70
2021/03/22 10:05:27;;;;;;;12.80;6.20;;;;;;;18.20;30.37;101763.56;5077927;28;20484;-69
2021/03/22 10:08:11;;;;;;;6.63;5.03;;;;;;;15.60;34.16;101768.78;5060475;28;20864;-70
2021/03/22 10:10:59;;;;;;;9.60;5.00;;;;;;;14.80;34.74;101766.50;5077589;28;20415;-69
2021/03/22 10:13:36;;;;;;;9.97;6.20;;;;;;;13.66;39.85;101772.19;5077939;28;20498;-70
2021/03/22 10:16:11;;;;;;;12.90;7.93;;;;;;;14.52;37.79;101774.91;5060463;28;20418;-69
2021/03/22 10:18:51;;;;;;;8.57;5.30;;;;;;;15.20;35.94;101762.41;5077786;28;20418;-70
2021/03/22 10:21:32;;;;;;;12.33;5.83;;;;;;;16.70;34.24;101761.25;5077927;28;20403;-70
2021/03/22 10:24:05;;;;;;;9.77;5.70;;;;;;;14.48;37.44;101768.78;5079944;28;20628;-69
2021/03/22 10:26:49;;;;;;;7.47;5.17;;;;;;;14.34;37.74;101773.88;5060177;28;20406;-71
2021/03/22 10:29:20;;;;;;;8.27;5.10;;;;;;;16.43;33.80;101762.09;5077483;28;20520;-70
2021/03/22 10:32:08;;;;;;;8.03;5.87;;;;;;;16.72;32.67;101751.59;5077576;28;20414;-70
2021/03/22 10:34:43;;;;;;;7.23;5.03;;;;;;;16.71;31.97;101755.13;5068272;28;20406;-69
2021/03/22 10:37:16;;;;;;;7.63;4.90;;;;;;;17.07;30.57;101757.75;5056721;28;20487;-71
2021/03/22 10:39:46;;;;;;;6.47;4.47;;;;;;;16.07;32.78;101767.25;5059188;28;20446;-73
2021/03/22 10:42:28;;;;;;;7.83;5.47;;;;;;;16.27;32.32;101759.41;5062262;28;20453;-72
2021/03/22 10:44:54;;;;;;;6.47;4.63;;;;;;;15.43;33.42;101775.69;5079704;28;20864;-71
2021/03/22 10:47:21;;;;;;;17.13;5.43;;;;;;;14.55;35.07;101780.22;5064147;28;20438;-70
2021/03/22 10:49:49;;;;;;;6.23;5.07;;;;;;;14.57;35.56;101778.47;5081728;28;20456;-72
2021/03/22 10:52:26;;;;;;;7.20;5.00;;;;;;;15.81;33.70;101770.66;5081277;28;20400;-71
2021/03/22 10:54:52;;;;;;;7.57;4.83;;;;;;;14.31;34.00;101784.34;5064452;28;20402;-71
2021/03/22 10:57:30;;;;;;;5.90;5.23;;;;;;;16.20;30.55;101783.09;5064284;28;20453;-72
2021/03/22 10:59:58;;;;;;;7.00;5.03;;;;;;;17.43;29.29;101775.28;5079828;28;20454;-71
2021/03/22 11:02:36;;;;;;;8.70;4.90;;;;;;;16.05;30.74;101770.75;5062034;28;20488;-71
2021/03/22 11:05:09;;;;;;;8.50;5.63;;;;;;;16.37;31.47;101784.00;5063840;28;20458;-71
2021/03/22 11:07:35;;;;;;;5.60;4.90;;;;;;;17.40;30.22;101766.47;5061952;28;20547;-70
2021/03/22 11:10:04;;;;;;;8.23;4.57;;;;;;;17.71;29.44;101769.03;5080248;28;20525;-70
2021/03/22 11:12:30;;;;;;;5.60;4.70;;;;;;;17.66;29.65;101761.16;5061430;28;20457;-76
2021/03/22 11:15:06;;;;;;;6.43;4.87;;;;;;;17.69;27.89;101763.75;5060509;28;20438;-71
2021/03/22 11:20:55;;;;;;;5.60;4.50;;;;;;;18.04;29.06;101773.34;5079345;28;20453;-74
2021/03/22 11:23:30;;;;;;;8.90;4.80;;;;;;;15.82;32.71;101779.44;5060340;28;20439;-70
2021/03/22 11:25:57;;;;;;;6.67;4.13;;;;;;;15.01;33.90;101790.28;5076924;28;20510;-71
2021/03/22 11:28:26;;;;;;;6.43;4.97;;;;;;;14.74;34.45;101797.94;5080580;28;20462;-73
2021/03/22 11:30:52;;;;;;;7.20;5.40;;;;;;;14.24;36.60;101795.63;5077077;28;20734;-70
2021/03/22 11:33:24;;;;;;;7.43;4.83;;;;;;;14.59;34.97;101797.75;5080013;28;20443;-73
2021/03/22 11:36:03;;;;;;;7.87;5.20;;;;;;;15.18;34.20;101798.28;5059288;28;20181;-70
2021/03/22 11:38:35;;;;;;;11.20;5.30;;;;;;;15.09;34.91;101801.75;5078078;28;20476;-72
2021/03/22 11:41:00;;;;;;;8.93;5.70;;;;;;;15.09;35.63;101789.47;5076909;28;20466;-71
2021/03/22 11:43:30;;;;;;;6.20;5.00;;;;;;;15.53;34.42;101792.41;5077642;28;20463;-71
2021/03/22 11:45:56;;;;;;;8.43;5.07;;;;;;;14.45;35.91;101792.34;5078533;28;20302;-73
2021/03/22 11:48:21;;;;;;;9.30;4.47;;;;;;;14.67;35.21;101798.75;5078551;28;20421;-72
2021/03/22 11:51:03;;;;;;;4.90;4.20;;;;;;;14.81;35.74;101783.09;5080347;28;20164;-71